sensor_id;sensor_type;location;lat;lon;timestamp;P1;durP1;ratioP1;P2;durP2;ratioP2
6105;SDS011;3083;51.508;7.966;2023-12-20T00:00:56;29.60;;;12.97;;
6105;SDS011;3083;51.508;7.966;2023-12-20T00:03:23;35.63;;;14.63;;
6105;SDS011;3083;51.508;7.966;2023-12-20T00:05:50;32.43;;;14.23;;
6105;SDS011;3083;51.508;7.966;2023-12-20T00:08:17;32.97;;;14.40;;
6105;SDS011;3083;51.508;7.966;2023-12-20T00:10:44;33.47;;;14.97;;
6105;SDS011;3083;51.508;7.966;2023-12-20T00:13:12;34.13;;;14.30;;
6105;SDS011;3083;51.508;7.966;2023-12-20T00:15:39;34.87;;;14.33;;
6105;SDS011;3083;51.508;7.966;2023-12-20T00:18:06;37.07;;;15.67;;
6105;SDS011;3083;51.508;7.966;2023-12-20T00:20:33;31.03;;;13.60;;
6105;SDS011;3083;51.508;7.966;2023-12-20T00:23:00;33.80;;;14.53;;
6105;SDS011;3083;51.508;7.966;2023-12-20T00:25:28;35.50;;;14.70;;
6105;SDS011;3083;51.508;7.966;2023-12-20T00:27:55;31.50;;;12.67;;
6105;SDS011;3083;51.508;7.966;2023-12-20T00:30:25;27.37;;;11.20;;
6105;SDS011;3083;51.508;7.966;2023-12-20T00:32:52;29.87;;;11.47;;
6105;SDS011;3083;51.508;7.966;2023-12-20T00:35:19;29.17;;;12.60;;
6105;SDS011;3083;51.508;7.966;2023-12-20T00:37:46;26.83;;;11.57;;
6105;SDS011;3083;51.508;7.966;2023-12-20T00:40:12;26.33;;;10.47;;
6105;SDS011;3083;51.508;7.966;2023-12-20T00:42:39;28.67;;;11.17;;
6105;SDS011;3083;51.508;7.966;2023-12-20T00:45:06;29.43;;;10.63;;
6105;SDS011;3083;51.508;7.966;2023-12-20T00:47:35;24.93;;;10.27;;
6105;SDS011;3083;51.508;7.966;2023-12-20T00:50:02;23.73;;;10.30;;
6105;SDS011;3083;51.508;7.966;2023-12-20T00:52:29;26.33;;;10.70;;
6105;SDS011;3083;51.508;7.966;2023-12-20T00:54:56;28.47;;;10.13;;
6105;SDS011;3083;51.508;7.966;2023-12-20T00:57:23;24.87;;;9.03;;
6105;SDS011;3083;51.508;7.966;2023-12-20T00:59:50;25.57;;;9.93;;
6105;SDS011;3083;51.508;7.966;2023-12-20T01:02:17;21.87;;;8.53;;
6105;SDS011;3083;51.508;7.966;2023-12-20T01:04:45;26.03;;;9.90;;
6105;SDS011;3083;51.508;7.966;2023-12-20T01:07:12;23.90;;;8.90;;
6105;SDS011;3083;51.508;7.966;2023-12-20T01:09:39;21.30;;;9.40;;
6105;SDS011;3083;51.508;7.966;2023-12-20T01:12:06;25.10;;;9.40;;
6105;SDS011;3083;51.508;7.966;2023-12-20T01:14:33;24.70;;;9.07;;
6105;SDS011;3083;51.508;7.966;2023-12-20T01:16:59;36.03;;;10.37;;
6105;SDS011;3083;51.508;7.966;2023-12-20T01:19:28;24.93;;;9.50;;
6105;SDS011;3083;51.508;7.966;2023-12-20T01:21:56;28.37;;;10.03;;
6105;SDS011;3083;51.508;7.966;2023-12-20T01:24:23;28.67;;;10.50;;
6105;SDS011;3083;51.508;7.966;2023-12-20T01:26:50;31.70;;;10.13;;
6105;SDS011;3083;51.508;7.966;2023-12-20T01:29:17;27.40;;;10.40;;
6105;SDS011;3083;51.508;7.966;2023-12-20T01:31:43;26.10;;;10.30;;
6105;SDS011;3083;51.508;7.966;2023-12-20T01:34:10;27.90;;;10.43;;
6105;SDS011;3083;51.508;7.966;2023-12-20T01:36:37;30.07;;;9.53;;
6105;SDS011;3083;51.508;7.966;2023-12-20T01:39:05;24.20;;;9.00;;
6105;SDS011;3083;51.508;7.966;2023-12-20T01:41:33;25.00;;;8.23;;
6105;SDS011;3083;51.508;7.966;2023-12-20T01:44:00;25.87;;;8.83;;
6105;SDS011;3083;51.508;7.966;2023-12-20T01:46:26;21.23;;;8.57;;
6105;SDS011;3083;51.508;7.966;2023-12-20T01:48:53;21.00;;;9.17;;
6105;SDS011;3083;51.508;7.966;2023-12-20T01:51:20;20.53;;;8.37;;
6105;SDS011;3083;51.508;7.966;2023-12-20T01:53:48;22.43;;;9.07;;
6105;SDS011;3083;51.508;7.966;2023-12-20T01:56:17;20.60;;;7.90;;
6105;SDS011;3083;51.508;7.966;2023-12-20T01:58:44;24.23;;;6.77;;
6105;SDS011;3083;51.508;7.966;2023-12-20T02:01:12;16.90;;;7.30;;
6105;SDS011;3083;51.508;7.966;2023-12-20T02:03:39;20.00;;;7.90;;
6105;SDS011;3083;51.508;7.966;2023-12-20T02:06:07;16.50;;;7.57;;
6105;SDS011;3083;51.508;7.966;2023-12-20T02:08:35;17.00;;;6.77;;
6105;SDS011;3083;51.508;7.966;2023-12-20T02:11:02;16.33;;;7.30;;
6105;SDS011;3083;51.508;7.966;2023-12-20T02:13:31;18.53;;;6.90;;
6105;SDS011;3083;51.508;7.966;2023-12-20T02:15:58;20.73;;;6.33;;
6105;SDS011;3083;51.508;7.966;2023-12-20T02:18:25;16.67;;;6.03;;
6105;SDS011;3083;51.508;7.966;2023-12-20T02:20:52;16.77;;;5.03;;
6105;SDS011;3083;51.508;7.966;2023-12-20T02:23:21;12.77;;;4.90;;
6105;SDS011;3083;51.508;7.966;2023-12-20T02:25:48;10.80;;;4.80;;
6105;SDS011;3083;51.508;7.966;2023-12-20T02:28:15;16.60;;;6.10;;
6105;SDS011;3083;51.508;7.966;2023-12-20T02:30:42;15.27;;;4.90;;
6105;SDS011;3083;51.508;7.966;2023-12-20T02:33:10;18.33;;;5.60;;
6105;SDS011;3083;51.508;7.966;2023-12-20T02:35:39;12.50;;;5.27;;
6105;SDS011;3083;51.508;7.966;2023-12-20T02:38:06;13.40;;;4.73;;
6105;SDS011;3083;51.508;7.966;2023-12-20T02:40:34;15.03;;;4.80;;
6105;SDS011;3083;51.508;7.966;2023-12-20T02:43:03;15.10;;;5.47;;
6105;SDS011;3083;51.508;7.966;2023-12-20T02:45:29;14.83;;;4.07;;
6105;SDS011;3083;51.508;7.966;2023-12-20T02:47:56;17.83;;;4.33;;
6105;SDS011;3083;51.508;7.966;2023-12-20T02:50:22;15.70;;;4.47;;
6105;SDS011;3083;51.508;7.966;2023-12-20T02:52:49;12.97;;;5.00;;
6105;SDS011;3083;51.508;7.966;2023-12-20T02:55:16;17.90;;;4.57;;
6105;SDS011;3083;51.508;7.966;2023-12-20T02:57:44;12.20;;;4.20;;
6105;SDS011;3083;51.508;7.966;2023-12-20T03:00:11;13.27;;;4.23;;
6105;SDS011;3083;51.508;7.966;2023-12-20T03:02:38;14.93;;;4.93;;
6105;SDS011;3083;51.508;7.966;2023-12-20T03:05:06;19.80;;;5.43;;
6105;SDS011;3083;51.508;7.966;2023-12-20T03:07:33;13.80;;;4.50;;
6105;SDS011;3083;51.508;7.966;2023-12-20T03:10:00;22.30;;;5.80;;
6105;SDS011;3083;51.508;7.966;2023-12-20T03:12:26;15.03;;;4.90;;
6105;SDS011;3083;51.508;7.966;2023-12-20T03:14:55;10.07;;;4.70;;
6105;SDS011;3083;51.508;7.966;2023-12-20T03:17:22;11.27;;;6.03;;
6105;SDS011;3083;51.508;7.966;2023-12-20T03:19:49;17.70;;;4.90;;
6105;SDS011;3083;51.508;7.966;2023-12-20T03:22:15;15.37;;;5.30;;
6105;SDS011;3083;51.508;7.966;2023-12-20T03:24:42;19.20;;;5.63;;
6105;SDS011;3083;51.508;7.966;2023-12-20T03:27:09;13.83;;;6.03;;
6105;SDS011;3083;51.508;7.966;2023-12-20T03:29:37;17.17;;;6.77;;
6105;SDS011;3083;51.508;7.966;2023-12-20T03:32:05;20.33;;;6.47;;
6105;SDS011;3083;51.508;7.966;2023-12-20T03:34:33;16.20;;;6.30;;
6105;SDS011;3083;51.508;7.966;2023-12-20T03:37:00;14.37;;;6.30;;
6105;SDS011;3083;51.508;7.966;2023-12-20T03:39:27;19.77;;;6.50;;
6105;SDS011;3083;51.508;7.966;2023-12-20T03:41:54;27.37;;;7.33;;
6105;SDS011;3083;51.508;7.966;2023-12-20T03:44:20;15.70;;;6.20;;
6105;SDS011;3083;51.508;7.966;2023-12-20T03:46:47;19.10;;;6.53;;
6105;SDS011;3083;51.508;7.966;2023-12-20T03:49:15;17.53;;;6.30;;
6105;SDS011;3083;51.508;7.966;2023-12-20T03:51:42;20.10;;;6.33;;
6105;SDS011;3083;51.508;7.966;2023-12-20T03:54:09;18.00;;;6.70;;
6105;SDS011;3083;51.508;7.966;2023-12-20T03:56:36;17.70;;;7.03;;
6105;SDS011;3083;51.508;7.966;2023-12-20T03:59:03;21.17;;;6.63;;
6105;SDS011;3083;51.508;7.966;2023-12-20T04:01:29;16.23;;;6.60;;
6105;SDS011;3083;51.508;7.966;2023-12-20T04:03:56;21.10;;;6.47;;
6105;SDS011;3083;51.508;7.966;2023-12-20T04:06:24;18.03;;;6.97;;
6105;SDS011;3083;51.508;7.966;2023-12-20T04:08:51;20.90;;;7.33;;
6105;SDS011;3083;51.508;7.966;2023-12-20T04:11:18;18.53;;;6.47;;
6105;SDS011;3083;51.508;7.966;2023-12-20T04:13:45;20.87;;;6.20;;
6105;SDS011;3083;51.508;7.966;2023-12-20T04:16:12;17.63;;;6.47;;
6105;SDS011;3083;51.508;7.966;2023-12-20T04:18:39;16.40;;;5.60;;
6105;SDS011;3083;51.508;7.966;2023-12-20T04:21:05;18.30;;;6.07;;
6105;SDS011;3083;51.508;7.966;2023-12-20T04:23:34;14.97;;;6.33;;
6105;SDS011;3083;51.508;7.966;2023-12-20T04:26:00;14.83;;;6.30;;
6105;SDS011;3083;51.508;7.966;2023-12-20T04:28:27;17.13;;;7.33;;
6105;SDS011;3083;51.508;7.966;2023-12-20T04:30:55;24.70;;;6.63;;
6105;SDS011;3083;51.508;7.966;2023-12-20T04:33:22;20.00;;;6.80;;
6105;SDS011;3083;51.508;7.966;2023-12-20T04:35:49;19.13;;;7.73;;
6105;SDS011;3083;51.508;7.966;2023-12-20T04:38:16;19.67;;;6.33;;
6105;SDS011;3083;51.508;7.966;2023-12-20T04:40:44;19.70;;;6.50;;
6105;SDS011;3083;51.508;7.966;2023-12-20T04:43:11;22.13;;;6.90;;
6105;SDS011;3083;51.508;7.966;2023-12-20T04:45:38;14.27;;;5.90;;
6105;SDS011;3083;51.508;7.966;2023-12-20T04:48:05;16.50;;;6.70;;
6105;SDS011;3083;51.508;7.966;2023-12-20T04:50:32;18.40;;;6.53;;
6105;SDS011;3083;51.508;7.966;2023-12-20T04:52:59;16.03;;;6.37;;
6105;SDS011;3083;51.508;7.966;2023-12-20T04:55:26;20.17;;;6.80;;
6105;SDS011;3083;51.508;7.966;2023-12-20T04:57:54;17.70;;;6.30;;
6105;SDS011;3083;51.508;7.966;2023-12-20T05:00:21;17.40;;;7.00;;
6105;SDS011;3083;51.508;7.966;2023-12-20T05:02:48;23.50;;;7.40;;
6105;SDS011;3083;51.508;7.966;2023-12-20T05:05:15;20.43;;;7.53;;
6105;SDS011;3083;51.508;7.966;2023-12-20T05:07:43;17.73;;;6.90;;
6105;SDS011;3083;51.508;7.966;2023-12-20T05:10:09;16.83;;;6.67;;
6105;SDS011;3083;51.508;7.966;2023-12-20T05:12:36;12.30;;;5.60;;
6105;SDS011;3083;51.508;7.966;2023-12-20T05:15:05;21.40;;;6.30;;
6105;SDS011;3083;51.508;7.966;2023-12-20T05:17:33;16.63;;;6.43;;
6105;SDS011;3083;51.508;7.966;2023-12-20T05:19:59;21.23;;;6.60;;
6105;SDS011;3083;51.508;7.966;2023-12-20T05:22:27;19.93;;;6.50;;
6105;SDS011;3083;51.508;7.966;2023-12-20T05:24:54;13.93;;;6.87;;
6105;SDS011;3083;51.508;7.966;2023-12-20T05:27:20;23.33;;;6.80;;
6105;SDS011;3083;51.508;7.966;2023-12-20T05:29:47;21.80;;;8.07;;
6105;SDS011;3083;51.508;7.966;2023-12-20T05:32:18;20.23;;;7.70;;
6105;SDS011;3083;51.508;7.966;2023-12-20T05:34:45;17.13;;;7.73;;
6105;SDS011;3083;51.508;7.966;2023-12-20T05:37:12;29.17;;;7.80;;
6105;SDS011;3083;51.508;7.966;2023-12-20T05:39:42;25.40;;;7.70;;
6105;SDS011;3083;51.508;7.966;2023-12-20T05:42:09;29.27;;;8.03;;
6105;SDS011;3083;51.508;7.966;2023-12-20T05:44:35;24.00;;;7.67;;
6105;SDS011;3083;51.508;7.966;2023-12-20T05:47:02;26.60;;;8.60;;
6105;SDS011;3083;51.508;7.966;2023-12-20T05:49:31;25.00;;;8.80;;
6105;SDS011;3083;51.508;7.966;2023-12-20T05:51:58;22.30;;;8.13;;
6105;SDS011;3083;51.508;7.966;2023-12-20T05:54:25;22.47;;;7.90;;
6105;SDS011;3083;51.508;7.966;2023-12-20T05:56:52;25.97;;;8.30;;
6105;SDS011;3083;51.508;7.966;2023-12-20T05:59:18;20.63;;;8.20;;
6105;SDS011;3083;51.508;7.966;2023-12-20T06:01:45;23.03;;;8.30;;
6105;SDS011;3083;51.508;7.966;2023-12-20T06:04:12;18.07;;;6.60;;
6105;SDS011;3083;51.508;7.966;2023-12-20T06:06:43;20.40;;;7.50;;
6105;SDS011;3083;51.508;7.966;2023-12-20T06:09:10;18.77;;;7.00;;
6105;SDS011;3083;51.508;7.966;2023-12-20T06:11:37;15.90;;;6.77;;
6105;SDS011;3083;51.508;7.966;2023-12-20T06:14:04;18.00;;;7.07;;
6105;SDS011;3083;51.508;7.966;2023-12-20T06:16:31;19.70;;;7.70;;
6105;SDS011;3083;51.508;7.966;2023-12-20T06:18:58;19.20;;;8.20;;
6105;SDS011;3083;51.508;7.966;2023-12-20T06:21:25;22.27;;;7.27;;
6105;SDS011;3083;51.508;7.966;2023-12-20T06:23:54;33.03;;;8.20;;
6105;SDS011;3083;51.508;7.966;2023-12-20T06:26:21;20.87;;;10.27;;
6105;SDS011;3083;51.508;7.966;2023-12-20T06:28:48;18.93;;;7.50;;
6105;SDS011;3083;51.508;7.966;2023-12-20T06:31:14;22.90;;;8.27;;
6105;SDS011;3083;51.508;7.966;2023-12-20T06:33:42;16.30;;;6.90;;
6105;SDS011;3083;51.508;7.966;2023-12-20T06:36:10;17.80;;;7.77;;
6105;SDS011;3083;51.508;7.966;2023-12-20T06:38:38;20.93;;;7.37;;
6105;SDS011;3083;51.508;7.966;2023-12-20T06:41:06;21.93;;;6.80;;
6105;SDS011;3083;51.508;7.966;2023-12-20T06:43:34;13.10;;;6.60;;
6105;SDS011;3083;51.508;7.966;2023-12-20T06:46:00;20.50;;;6.83;;
6105;SDS011;3083;51.508;7.966;2023-12-20T06:48:27;20.63;;;6.73;;
6105;SDS011;3083;51.508;7.966;2023-12-20T06:50:54;26.00;;;7.50;;
6105;SDS011;3083;51.508;7.966;2023-12-20T06:53:21;21.70;;;7.87;;
6105;SDS011;3083;51.508;7.966;2023-12-20T06:55:48;17.10;;;7.40;;
6105;SDS011;3083;51.508;7.966;2023-12-20T06:58:16;21.43;;;7.53;;
6105;SDS011;3083;51.508;7.966;2023-12-20T07:00:43;21.60;;;7.50;;
6105;SDS011;3083;51.508;7.966;2023-12-20T07:03:10;22.73;;;7.10;;
6105;SDS011;3083;51.508;7.966;2023-12-20T07:05:37;17.03;;;7.10;;
6105;SDS011;3083;51.508;7.966;2023-12-20T07:08:04;20.20;;;7.50;;
6105;SDS011;3083;51.508;7.966;2023-12-20T07:10:31;30.33;;;8.33;;
6105;SDS011;3083;51.508;7.966;2023-12-20T07:12:58;16.23;;;7.80;;
6105;SDS011;3083;51.508;7.966;2023-12-20T07:15:27;24.50;;;6.23;;
6105;SDS011;3083;51.508;7.966;2023-12-20T07:17:54;22.97;;;8.40;;
6105;SDS011;3083;51.508;7.966;2023-12-20T07:20:21;20.70;;;7.93;;
6105;SDS011;3083;51.508;7.966;2023-12-20T07:22:48;20.77;;;6.80;;
6105;SDS011;3083;51.508;7.966;2023-12-20T07:25:15;21.33;;;7.50;;
6105;SDS011;3083;51.508;7.966;2023-12-20T07:27:42;19.70;;;7.93;;
6105;SDS011;3083;51.508;7.966;2023-12-20T07:30:10;19.47;;;7.80;;
6105;SDS011;3083;51.508;7.966;2023-12-20T07:32:39;27.77;;;9.73;;
6105;SDS011;3083;51.508;7.966;2023-12-20T07:35:06;21.97;;;7.63;;
6105;SDS011;3083;51.508;7.966;2023-12-20T07:37:33;17.90;;;8.30;;
6105;SDS011;3083;51.508;7.966;2023-12-20T07:40:00;22.83;;;8.00;;
6105;SDS011;3083;51.508;7.966;2023-12-20T07:42:28;19.90;;;7.90;;
6105;SDS011;3083;51.508;7.966;2023-12-20T07:44:55;17.97;;;6.73;;
6105;SDS011;3083;51.508;7.966;2023-12-20T07:47:22;21.20;;;7.20;;
6105;SDS011;3083;51.508;7.966;2023-12-20T07:49:51;19.87;;;7.87;;
6105;SDS011;3083;51.508;7.966;2023-12-20T07:52:18;19.43;;;8.20;;
6105;SDS011;3083;51.508;7.966;2023-12-20T07:54:47;20.40;;;6.70;;
6105;SDS011;3083;51.508;7.966;2023-12-20T07:57:13;30.13;;;8.13;;
6105;SDS011;3083;51.508;7.966;2023-12-20T07:59:40;19.90;;;7.13;;
6105;SDS011;3083;51.508;7.966;2023-12-20T08:02:09;19.43;;;7.07;;
6105;SDS011;3083;51.508;7.966;2023-12-20T08:04:36;21.03;;;8.00;;
6105;SDS011;3083;51.508;7.966;2023-12-20T08:07:05;20.77;;;6.67;;
6105;SDS011;3083;51.508;7.966;2023-12-20T08:09:31;14.20;;;6.47;;
6105;SDS011;3083;51.508;7.966;2023-12-20T08:11:59;19.30;;;7.13;;
6105;SDS011;3083;51.508;7.966;2023-12-20T08:14:26;14.03;;;6.43;;
6105;SDS011;3083;51.508;7.966;2023-12-20T08:16:53;17.90;;;6.90;;
6105;SDS011;3083;51.508;7.966;2023-12-20T08:19:20;18.40;;;6.60;;
6105;SDS011;3083;51.508;7.966;2023-12-20T08:21:46;21.27;;;7.07;;
6105;SDS011;3083;51.508;7.966;2023-12-20T08:24:15;18.47;;;7.03;;
6105;SDS011;3083;51.508;7.966;2023-12-20T08:26:42;21.63;;;6.90;;
6105;SDS011;3083;51.508;7.966;2023-12-20T08:29:09;17.17;;;6.63;;
6105;SDS011;3083;51.508;7.966;2023-12-20T08:31:35;20.53;;;6.47;;
6105;SDS011;3083;51.508;7.966;2023-12-20T08:34:02;14.10;;;5.90;;
6105;SDS011;3083;51.508;7.966;2023-12-20T08:36:29;14.23;;;6.10;;
6105;SDS011;3083;51.508;7.966;2023-12-20T08:38:56;18.00;;;7.17;;
6105;SDS011;3083;51.508;7.966;2023-12-20T08:41:24;17.50;;;6.27;;
6105;SDS011;3083;51.508;7.966;2023-12-20T08:43:51;14.70;;;6.00;;
6105;SDS011;3083;51.508;7.966;2023-12-20T08:46:18;16.90;;;6.27;;
6105;SDS011;3083;51.508;7.966;2023-12-20T08:48:45;16.27;;;6.30;;
6105;SDS011;3083;51.508;7.966;2023-12-20T08:51:12;12.50;;;5.93;;
6105;SDS011;3083;51.508;7.966;2023-12-20T08:53:39;13.40;;;6.57;;
6105;SDS011;3083;51.508;7.966;2023-12-20T08:56:06;15.80;;;6.10;;
6105;SDS011;3083;51.508;7.966;2023-12-20T08:58:35;19.27;;;5.80;;
6105;SDS011;3083;51.508;7.966;2023-12-20T09:01:02;17.87;;;7.33;;
6105;SDS011;3083;51.508;7.966;2023-12-20T09:03:29;15.27;;;6.50;;
6105;SDS011;3083;51.508;7.966;2023-12-20T09:05:55;20.13;;;6.60;;
6105;SDS011;3083;51.508;7.966;2023-12-20T09:08:22;14.40;;;6.00;;
6105;SDS011;3083;51.508;7.966;2023-12-20T09:10:49;16.00;;;6.43;;
6105;SDS011;3083;51.508;7.966;2023-12-20T09:13:17;17.90;;;6.47;;
6105;SDS011;3083;51.508;7.966;2023-12-20T09:15:47;14.73;;;6.97;;
6105;SDS011;3083;51.508;7.966;2023-12-20T09:18:14;16.30;;;5.77;;
6105;SDS011;3083;51.508;7.966;2023-12-20T09:20:42;17.93;;;6.63;;
6105;SDS011;3083;51.508;7.966;2023-12-20T09:23:08;16.63;;;6.50;;
6105;SDS011;3083;51.508;7.966;2023-12-20T09:25:35;21.03;;;7.50;;
6105;SDS011;3083;51.508;7.966;2023-12-20T09:28:02;16.23;;;7.00;;
6105;SDS011;3083;51.508;7.966;2023-12-20T09:30:30;15.80;;;6.17;;
6105;SDS011;3083;51.508;7.966;2023-12-20T09:32:59;18.13;;;6.87;;
6105;SDS011;3083;51.508;7.966;2023-12-20T09:35:25;19.47;;;6.60;;
6105;SDS011;3083;51.508;7.966;2023-12-20T09:37:52;16.23;;;6.93;;
6105;SDS011;3083;51.508;7.966;2023-12-20T09:40:19;16.70;;;6.53;;
6105;SDS011;3083;51.508;7.966;2023-12-20T09:42:48;21.40;;;7.70;;
6105;SDS011;3083;51.508;7.966;2023-12-20T09:45:20;21.57;;;8.80;;
6105;SDS011;3083;51.508;7.966;2023-12-20T09:47:48;14.43;;;6.33;;
6105;SDS011;3083;51.508;7.966;2023-12-20T09:50:17;14.03;;;6.70;;
6105;SDS011;3083;51.508;7.966;2023-12-20T09:52:46;21.40;;;6.60;;
6105;SDS011;3083;51.508;7.966;2023-12-20T09:55:17;18.27;;;7.17;;
6105;SDS011;3083;51.508;7.966;2023-12-20T09:57:44;17.30;;;7.07;;
6105;SDS011;3083;51.508;7.966;2023-12-20T10:00:11;16.10;;;6.80;;
6105;SDS011;3083;51.508;7.966;2023-12-20T10:02:40;16.27;;;7.13;;
6105;SDS011;3083;51.508;7.966;2023-12-20T10:05:14;13.53;;;6.20;;
6105;SDS011;3083;51.508;7.966;2023-12-20T10:07:45;14.27;;;6.83;;
6105;SDS011;3083;51.508;7.966;2023-12-20T10:10:13;14.70;;;6.40;;
6105;SDS011;3083;51.508;7.966;2023-12-20T10:12:40;11.27;;;6.43;;
6105;SDS011;3083;51.508;7.966;2023-12-20T10:15:07;18.80;;;6.50;;
6105;SDS011;3083;51.508;7.966;2023-12-20T10:17:35;17.73;;;6.57;;
6105;SDS011;3083;51.508;7.966;2023-12-20T10:20:02;22.10;;;7.10;;
6105;SDS011;3083;51.508;7.966;2023-12-20T10:22:34;12.70;;;6.30;;
6105;SDS011;3083;51.508;7.966;2023-12-20T10:25:03;13.00;;;6.60;;
6105;SDS011;3083;51.508;7.966;2023-12-20T10:27:31;21.47;;;7.33;;
6105;SDS011;3083;51.508;7.966;2023-12-20T10:29:58;14.00;;;6.47;;
6105;SDS011;3083;51.508;7.966;2023-12-20T10:32:26;16.73;;;5.90;;
6105;SDS011;3083;51.508;7.966;2023-12-20T10:34:54;14.70;;;6.60;;
6105;SDS011;3083;51.508;7.966;2023-12-20T10:37:22;13.13;;;6.07;;
6105;SDS011;3083;51.508;7.966;2023-12-20T10:39:49;20.87;;;6.37;;
6105;SDS011;3083;51.508;7.966;2023-12-20T10:42:22;13.53;;;5.60;;
6105;SDS011;3083;51.508;7.966;2023-12-20T10:44:50;20.87;;;5.87;;
6105;SDS011;3083;51.508;7.966;2023-12-20T10:47:19;16.60;;;5.67;;
6105;SDS011;3083;51.508;7.966;2023-12-20T10:49:46;12.80;;;5.27;;
6105;SDS011;3083;51.508;7.966;2023-12-20T10:52:14;11.83;;;5.50;;
6105;SDS011;3083;51.508;7.966;2023-12-20T10:54:42;12.23;;;5.13;;
6105;SDS011;3083;51.508;7.966;2023-12-20T10:57:11;19.13;;;5.27;;
6105;SDS011;3083;51.508;7.966;2023-12-20T10:59:39;16.17;;;5.60;;
6105;SDS011;3083;51.508;7.966;2023-12-20T11:02:07;15.60;;;5.97;;
6105;SDS011;3083;51.508;7.966;2023-12-20T11:04:36;15.73;;;5.63;;
6105;SDS011;3083;51.508;7.966;2023-12-20T11:07:15;15.63;;;5.50;;
6105;SDS011;3083;51.508;7.966;2023-12-20T11:09:51;14.97;;;6.40;;
6105;SDS011;3083;51.508;7.966;2023-12-20T11:12:27;15.73;;;6.20;;
6105;SDS011;3083;51.508;7.966;2023-12-20T11:15:03;9.73;;;5.20;;
6105;SDS011;3083;51.508;7.966;2023-12-20T11:17:31;11.43;;;5.13;;
6105;SDS011;3083;51.508;7.966;2023-12-20T11:20:05;17.23;;;6.40;;
6105;SDS011;3083;51.508;7.966;2023-12-20T11:22:35;19.23;;;7.03;;
6105;SDS011;3083;51.508;7.966;2023-12-20T11:25:04;15.80;;;6.00;;
6105;SDS011;3083;51.508;7.966;2023-12-20T11:27:33;22.93;;;6.80;;
6105;SDS011;3083;51.508;7.966;2023-12-20T11:30:02;15.57;;;5.97;;
6105;SDS011;3083;51.508;7.966;2023-12-20T11:32:34;16.20;;;7.37;;
6105;SDS011;3083;51.508;7.966;2023-12-20T11:35:16;14.73;;;6.83;;
6105;SDS011;3083;51.508;7.966;2023-12-20T11:37:44;22.20;;;7.67;;
6105;SDS011;3083;51.508;7.966;2023-12-20T11:40:13;13.83;;;6.90;;
6105;SDS011;3083;51.508;7.966;2023-12-20T11:42:42;16.47;;;6.93;;
6105;SDS011;3083;51.508;7.966;2023-12-20T11:45:13;13.23;;;6.50;;
6105;SDS011;3083;51.508;7.966;2023-12-20T11:47:42;20.80;;;8.20;;
6105;SDS011;3083;51.508;7.966;2023-12-20T11:50:11;12.63;;;6.70;;
6105;SDS011;3083;51.508;7.966;2023-12-20T11:52:38;24.50;;;8.17;;
6105;SDS011;3083;51.508;7.966;2023-12-20T11:55:05;22.63;;;7.27;;
6105;SDS011;3083;51.508;7.966;2023-12-20T11:57:33;16.43;;;7.00;;
6105;SDS011;3083;51.508;7.966;2023-12-20T12:00:00;16.20;;;7.17;;
6105;SDS011;3083;51.508;7.966;2023-12-20T12:02:29;20.47;;;8.83;;
6105;SDS011;3083;51.508;7.966;2023-12-20T12:04:56;15.47;;;7.50;;
6105;SDS011;3083;51.508;7.966;2023-12-20T12:07:25;14.13;;;6.97;;
6105;SDS011;3083;51.508;7.966;2023-12-20T12:09:52;17.67;;;7.67;;
6105;SDS011;3083;51.508;7.966;2023-12-20T12:12:19;13.80;;;6.60;;
6105;SDS011;3083;51.508;7.966;2023-12-20T12:14:46;22.83;;;7.67;;
6105;SDS011;3083;51.508;7.966;2023-12-20T12:17:15;19.80;;;6.90;;
6105;SDS011;3083;51.508;7.966;2023-12-20T12:19:43;21.47;;;7.80;;
6105;SDS011;3083;51.508;7.966;2023-12-20T12:22:11;15.47;;;7.63;;
6105;SDS011;3083;51.508;7.966;2023-12-20T12:24:41;15.60;;;7.20;;
6105;SDS011;3083;51.508;7.966;2023-12-20T12:27:09;17.87;;;7.37;;
6105;SDS011;3083;51.508;7.966;2023-12-20T12:29:37;22.17;;;6.93;;
6105;SDS011;3083;51.508;7.966;2023-12-20T12:32:04;16.73;;;7.77;;
6105;SDS011;3083;51.508;7.966;2023-12-20T12:34:32;20.80;;;8.00;;
6105;SDS011;3083;51.508;7.966;2023-12-20T12:37:01;17.90;;;8.70;;
6105;SDS011;3083;51.508;7.966;2023-12-20T12:39:30;14.13;;;6.73;;
6105;SDS011;3083;51.508;7.966;2023-12-20T12:41:56;16.53;;;6.93;;
6105;SDS011;3083;51.508;7.966;2023-12-20T12:44:23;17.37;;;7.83;;
6105;SDS011;3083;51.508;7.966;2023-12-20T12:46:51;16.13;;;8.03;;
6105;SDS011;3083;51.508;7.966;2023-12-20T12:49:18;14.20;;;7.60;;
6105;SDS011;3083;51.508;7.966;2023-12-20T12:51:46;16.83;;;8.33;;
6105;SDS011;3083;51.508;7.966;2023-12-20T12:54:14;14.50;;;7.13;;
6105;SDS011;3083;51.508;7.966;2023-12-20T12:56:43;15.67;;;7.20;;
6105;SDS011;3083;51.508;7.966;2023-12-20T12:59:10;19.80;;;6.93;;
6105;SDS011;3083;51.508;7.966;2023-12-20T13:01:37;17.17;;;7.33;;
6105;SDS011;3083;51.508;7.966;2023-12-20T13:04:04;18.63;;;7.20;;
6105;SDS011;3083;51.508;7.966;2023-12-20T13:06:35;15.97;;;7.20;;
6105;SDS011;3083;51.508;7.966;2023-12-20T13:09:02;15.80;;;7.10;;
6105;SDS011;3083;51.508;7.966;2023-12-20T13:11:31;15.83;;;6.30;;
6105;SDS011;3083;51.508;7.966;2023-12-20T13:13:58;18.13;;;6.90;;
6105;SDS011;3083;51.508;7.966;2023-12-20T13:16:25;14.67;;;6.30;;
6105;SDS011;3083;51.508;7.966;2023-12-20T13:18:52;16.07;;;6.77;;
6105;SDS011;3083;51.508;7.966;2023-12-20T13:21:19;18.20;;;7.33;;
6105;SDS011;3083;51.508;7.966;2023-12-20T13:23:45;15.43;;;6.80;;
6105;SDS011;3083;51.508;7.966;2023-12-20T13:26:12;17.40;;;7.17;;
6105;SDS011;3083;51.508;7.966;2023-12-20T13:28:40;16.43;;;7.20;;
6105;SDS011;3083;51.508;7.966;2023-12-20T13:31:07;17.20;;;7.40;;
6105;SDS011;3083;51.508;7.966;2023-12-20T13:33:34;20.10;;;7.17;;
6105;SDS011;3083;51.508;7.966;2023-12-20T13:36:01;16.37;;;7.23;;
6105;SDS011;3083;51.508;7.966;2023-12-20T13:38:29;22.33;;;8.77;;
6105;SDS011;3083;51.508;7.966;2023-12-20T13:40:56;22.67;;;7.50;;
6105;SDS011;3083;51.508;7.966;2023-12-20T13:43:23;16.57;;;7.90;;
6105;SDS011;3083;51.508;7.966;2023-12-20T13:45:52;13.97;;;7.37;;
6105;SDS011;3083;51.508;7.966;2023-12-20T13:48:18;23.43;;;8.27;;
6105;SDS011;3083;51.508;7.966;2023-12-20T13:50:45;19.00;;;8.30;;
6105;SDS011;3083;51.508;7.966;2023-12-20T13:53:12;22.30;;;8.37;;
6105;SDS011;3083;51.508;7.966;2023-12-20T13:55:40;17.63;;;7.47;;
6105;SDS011;3083;51.508;7.966;2023-12-20T13:58:07;16.80;;;7.90;;
6105;SDS011;3083;51.508;7.966;2023-12-20T14:00:35;15.00;;;7.00;;
6105;SDS011;3083;51.508;7.966;2023-12-20T14:03:04;17.17;;;6.93;;
6105;SDS011;3083;51.508;7.966;2023-12-20T14:05:32;17.73;;;6.70;;
6105;SDS011;3083;51.508;7.966;2023-12-20T14:07:58;20.43;;;7.90;;
6105;SDS011;3083;51.508;7.966;2023-12-20T14:10:25;14.60;;;7.20;;
6105;SDS011;3083;51.508;7.966;2023-12-20T14:12:53;21.93;;;6.97;;
6105;SDS011;3083;51.508;7.966;2023-12-20T14:15:20;13.00;;;6.70;;
6105;SDS011;3083;51.508;7.966;2023-12-20T14:17:47;13.23;;;6.97;;
6105;SDS011;3083;51.508;7.966;2023-12-20T14:20:15;21.00;;;8.00;;
6105;SDS011;3083;51.508;7.966;2023-12-20T14:22:41;21.70;;;7.33;;
6105;SDS011;3083;51.508;7.966;2023-12-20T14:25:10;21.70;;;7.43;;
6105;SDS011;3083;51.508;7.966;2023-12-20T14:27:37;18.77;;;7.80;;
6105;SDS011;3083;51.508;7.966;2023-12-20T14:30:05;15.50;;;6.80;;
6105;SDS011;3083;51.508;7.966;2023-12-20T14:32:34;14.90;;;7.77;;
6105;SDS011;3083;51.508;7.966;2023-12-20T14:35:03;11.30;;;6.70;;
6105;SDS011;3083;51.508;7.966;2023-12-20T14:37:32;16.40;;;6.90;;
6105;SDS011;3083;51.508;7.966;2023-12-20T14:39:59;19.30;;;8.60;;
6105;SDS011;3083;51.508;7.966;2023-12-20T14:42:26;20.03;;;7.77;;
6105;SDS011;3083;51.508;7.966;2023-12-20T14:44:53;13.63;;;6.40;;
6105;SDS011;3083;51.508;7.966;2023-12-20T14:47:20;13.03;;;7.10;;
6105;SDS011;3083;51.508;7.966;2023-12-20T14:49:47;12.63;;;5.93;;
6105;SDS011;3083;51.508;7.966;2023-12-20T14:52:14;16.07;;;7.77;;
6105;SDS011;3083;51.508;7.966;2023-12-20T14:54:44;12.30;;;5.80;;
6105;SDS011;3083;51.508;7.966;2023-12-20T14:57:11;12.47;;;6.37;;
6105;SDS011;3083;51.508;7.966;2023-12-20T14:59:38;15.20;;;6.70;;
6105;SDS011;3083;51.508;7.966;2023-12-20T15:02:05;13.43;;;6.37;;